Time;durP1;ratioP1;P1;durP2;ratioP2;P2;SDS_P1;SDS_P2;PMS_P1;PMS_P2;Temp;Humidity;BMP_temperature;BMP_pressure;BME280_temperature;BME280_humidity;BME280_pressure;Samples;Min_cycle;Max_cycle;Signal;HPM_P1;HPM_P2
2023/12/17 00:00:37;;;;;;;;;;;;;;;;;;4147494;28;19929;-67
2023/12/17 00:02:38;;;;;;;;;;;;;;;;;;4181310;28;19925;-67
2023/12/17 00:04:48;;;;;;;;;;;;;;;;;;4182069;28;19925;-67
2023/12/17 00:06:49;;;;;;;;;;;;;;;;;;4181674;28;19932;-68
2023/12/17 00:08:51;;;;;;;;;;;;;;;;;;4165961;28;19932;-67
2023/12/17 00:10:52;;;;;;;;;;;;;;;;;;4180441;28;19925;-67
2023/12/17 00:12:54;;;;;;;;;;;;;;;;;;4198216;28;20384;-68
2023/12/17 00:14:55;;;;;;;;;;;;;;;;;;4198120;28;19931;-68
2023/12/17 00:16:57;;;;;;;;;;;;;;;;;;4198123;28;20359;-68
2023/12/17 00:18:58;;;;;;;;;;;;;;;;;;4198049;28;20387;-67
2023/12/17 00:21:00;;;;;;;;;;;;;;;;;;4198021;28;19932;-68
2023/12/17 00:23:04;;;;;;;;;;;;;;;;;;4197640;28;19924;-67
2023/12/17 00:25:05;;;;;;;;;;;;;;;;;;4197964;28;20391;-68
2023/12/17 00:27:09;;;;;;;;;;;;;;;;;;4197958;28;19929;-67
2023/12/17 00:29:11;;;;;;;;;;;;;;;;;;4198135;28;19931;-67
2023/12/17 00:31:12;;;;;;;;;;;;;;;;;;4190589;28;19968;-67
2023/12/17 00:33:14;;;;;;;;;;;;;;;;;;4181615;28;20206;-68
2023/12/17 00:35:16;;;;;;;;;;;;;;;;;;4181345;28;19928;-67
2023/12/17 00:37:17;;;;;;;;;;;;;;;;;;4181300;28;19960;-68
2023/12/17 00:39:18;;;;;;;;;;;;;;;;;;4181429;28;19928;-67
2023/12/17 00:41:20;;;;;;;;;;;;;;;;;;4181414;28;19924;-68
2023/12/17 00:43:22;;;;;;;;;;;;;;;;;;4181356;28;19932;-68
2023/12/17 00:45:23;;;;;;;;;;;;;;;;;;4181460;28;19933;-67
2023/12/17 00:47:25;;;;;;;;;;;;;;;;;;4181072;28;20399;-68
2023/12/17 00:49:26;;;;;;;;;;;;;;;;;;4181508;28;20166;-67
2023/12/17 00:51:31;;;;;;;;;;;;;;;;;;4162256;28;19935;-67
2023/12/17 00:53:32;;;;;;;;;;;;;;;;;;4177469;28;19970;-67
2023/12/17 00:55:34;;;;;;;;;;;;;;;;;;4196642;28;19950;-68
2023/12/17 00:57:35;;;;;;;;;;;;;;;;;;4179706;28;19925;-68
2023/12/17 00:59:37;;;;;;;;;;;;;;;;;;4184034;28;19929;-68
2023/12/17 01:01:39;;;;;;;;;;;;;;;;;;4179843;28;19924;-69
2023/12/17 01:03:40;;;;;;;;;;;;;;;;;;4178924;28;19925;-66
2023/12/17 01:05:42;;;;;;;;;;;;;;;;;;4164257;28;19948;-68
2023/12/17 01:07:43;;;;;;;;;;;;;;;;;;4146983;28;19925;-67
2023/12/17 01:09:45;;;;;;;;;;;;;;;;;;4194679;28;20011;-67
2023/12/17 01:11:46;;;;;;;;;;;;;;;;;;4179728;28;20015;-68
2023/12/17 01:13:48;;;;;;;;;;;;;;;;;;4197625;28;20268;-67
2023/12/17 01:15:49;;;;;;;;;;;;;;;;;;4197628;28;19925;-68
2023/12/17 01:17:51;;;;;;;;;;;;;;;;;;4197677;28;19931;-67
2023/12/17 01:19:52;;;;;;;;;;;;;;;;;;4195976;28;19935;-67
2023/12/17 01:21:54;;;;;;;;;;;;;;;;;;4197726;28;19929;-67
2023/12/17 01:23:57;;;;;;;;;;;;;;;;;;4197680;28;19978;-67
2023/12/17 01:25:58;;;;;;;;;;;;;;;;;;4197417;28;20011;-67
2023/12/17 01:28:00;;;;;;;;;;;;;;;;;;4197310;28;20024;-67
2023/12/17 01:30:01;;;;;;;;;;;;;;;;;;4197315;28;19928;-67
2023/12/17 01:32:03;;;;;;;;;;;;;;;;;;4183093;28;19975;-67
2023/12/17 01:34:06;;;;;;;;;;;;;;;;;;4181407;28;19931;-68
2023/12/17 01:36:08;;;;;;;;;;;;;;;;;;4183938;28;19928;-67
2023/12/17 01:38:10;;;;;;;;;;;;;;;;;;4184285;28;20331;-67
2023/12/17 01:40:11;;;;;;;;;;;;;;;;;;4184251;28;19925;-67
2023/12/17 01:42:13;;;;;;;;;;;;;;;;;;4184177;28;20278;-67
2023/12/17 01:44:15;;;;;;;;;;;;;;;;;;4166278;28;19937;-67
2023/12/17 01:46:17;;;;;;;;;;;;;;;;;;4184117;28;19936;-68
2023/12/17 01:48:18;;;;;;;;;;;;;;;;;;4184001;28;19933;-68
2023/12/17 01:50:20;;;;;;;;;;;;;;;;;;4166158;28;19926;-66
2023/12/17 01:52:23;;;;;;;;;;;;;;;;;;4190093;28;19924;-67
2023/12/17 01:54:25;;;;;;;;;;;;;;;;;;4199734;28;20439;-59
2023/12/17 01:56:29;;;;;;;;;;;;;;;;;;4133566;28;20386;-59
2023/12/17 01:58:31;;;;;;;;;;;;;;;;;;4182856;28;20379;-60
2023/12/17 02:00:32;;;;;;;;;;;;;;;;;;4176741;28;20012;-67
2023/12/17 02:02:34;;;;;;;;;;;;;;;;;;4166937;28;20304;-67
2023/12/17 02:04:35;;;;;;;;;;;;;;;;;;4209640;22;19924;-67
2023/12/17 02:06:38;;;;;;;;;;;;;;;;;;4199945;28;19930;-67
2023/12/17 02:08:40;;;;;;;;;;;;;;;;;;4206458;28;19924;-67
2023/12/17 02:10:41;;;;;;;;;;;;;;;;;;4216872;28;19928;-67
2023/12/17 02:12:43;;;;;;;;;;;;;;;;;;4216864;28;19973;-67
2023/12/17 02:14:44;;;;;;;;;;;;;;;;;;4216837;28;19924;-66
2023/12/17 02:16:46;;;;;;;;;;;;;;;;;;4216939;28;19931;-67
2023/12/17 02:18:47;;;;;;;;;;;;;;;;;;4216983;28;19985;-67
2023/12/17 02:20:50;;;;;;;;;;;;;;;;;;4216592;28;20383;-67
2023/12/17 02:22:51;;;;;;;;;;;;;;;;;;4216707;28;20427;-67
2023/12/17 02:24:53;;;;;;;;;;;;;;;;;;4216639;28;19928;-67
2023/12/17 02:26:54;;;;;;;;;;;;;;;;;;4216591;28;20401;-67
2023/12/17 02:28:56;;;;;;;;;;;;;;;;;;4216927;28;19935;-67
2023/12/17 02:30:57;;;;;;;;;;;;;;;;;;4211382;28;19928;-67
2023/12/17 02:32:59;;;;;;;;;;;;;;;;;;4186255;28;19935;-67
2023/12/17 02:35:00;;;;;;;;;;;;;;;;;;4186177;28;19932;-67
2023/12/17 02:37:02;;;;;;;;;;;;;;;;;;4183352;28;19933;-67
2023/12/17 02:39:03;;;;;;;;;;;;;;;;;;4182997;28;19929;-66
2023/12/17 02:41:05;;;;;;;;;;;;;;;;;;4183066;28;19947;-67
2023/12/17 02:43:06;;;;;;;;;;;;;;;;;;4185252;28;19932;-67
2023/12/17 02:45:07;;;;;;;;;;;;;;;;;;4199341;28;19924;-67
2023/12/17 02:47:09;;;;;;;;;;;;;;;;;;4198526;28;19924;-67
2023/12/17 02:49:11;;;;;;;;;;;;;;;;;;4198035;28;19932;-67
2023/12/17 02:51:13;;;;;;;;;;;;;;;;;;4197818;28;19986;-67
2023/12/17 02:53:14;;;;;;;;;;;;;;;;;;4211116;28;19928;-67
2023/12/17 02:55:16;;;;;;;;;;;;;;;;;;4214880;28;19934;-67
2023/12/17 02:57:17;;;;;;;;;;;;;;;;;;4203405;28;20279;-68
2023/12/17 02:59:19;;;;;;;;;;;;;;;;;;4198072;28;19931;-67
2023/12/17 03:01:20;;;;;;;;;;;;;;;;;;4197874;28;19991;-67
2023/12/17 03:03:22;;;;;;;;;;;;;;;;;;4197531;28;19925;-67
2023/12/17 03:05:24;;;;;;;;;;;;;;;;;;4196949;28;19924;-67
2023/12/17 03:07:25;;;;;;;;;;;;;;;;;;4199523;28;19975;-67
2023/12/17 03:09:27;;;;;;;;;;;;;;;;;;4212029;28;20023;-67
2023/12/17 03:11:28;;;;;;;;;;;;;;;;;;4215839;28;20433;-67
2023/12/17 03:13:30;;;;;;;;;;;;;;;;;;4216195;28;19924;-67
2023/12/17 03:15:31;;;;;;;;;;;;;;;;;;4216049;28;19966;-67
2023/12/17 03:17:35;;;;;;;;;;;;;;;;;;4215819;28;19935;-67
2023/12/17 03:19:36;;;;;;;;;;;;;;;;;;4215558;28;19931;-67
2023/12/17 03:21:38;;;;;;;;;;;;;;;;;;4215826;28;20015;-67
2023/12/17 03:23:39;;;;;;;;;;;;;;;;;;4215991;28;19925;-68
2023/12/17 03:25:41;;;;;;;;;;;;;;;;;;4215649;28;19924;-67
2023/12/17 03:27:42;;;;;;;;;;;;;;;;;;4215911;28;20268;-67
2023/12/17 03:29:44;;;;;;;;;;;;;;;;;;4215603;28;20014;-67
2023/12/17 03:31:45;;;;;;;;;;;;;;;;;;4203434;28;19928;-67
2023/12/17 03:33:47;;;;;;;;;;;;;;;;;;4198847;28;19924;-67
2023/12/17 03:35:49;;;;;;;;;;;;;;;;;;4198696;28;19951;-67
2023/12/17 03:37:50;;;;;;;;;;;;;;;;;;4198612;28;19974;-67
2023/12/17 03:39:52;;;;;;;;;;;;;;;;;;4198512;28;19933;-67
2023/12/17 03:41:54;;;;;;;;;;;;;;;;;;4198938;28;19982;-67
2023/12/17 03:43:55;;;;;;;;;;;;;;;;;;4198614;28;20264;-67
2023/12/17 03:45:57;;;;;;;;;;;;;;;;;;4198714;28;19924;-67
2023/12/17 03:47:58;;;;;;;;;;;;;;;;;;4197274;28;19963;-67
2023/12/17 03:50:00;;;;;;;;;;;;;;;;;;4198441;28;19925;-67
2023/12/17 03:52:01;;;;;;;;;;;;;;;;;;4201575;28;19924;-67
2023/12/17 03:54:02;;;;;;;;;;;;;;;;;;4199907;28;20421;-67
2023/12/17 03:56:04;;;;;;;;;;;;;;;;;;4198499;28;20019;-67
2023/12/17 03:58:05;;;;;;;;;;;;;;;;;;4197643;28;20385;-67
2023/12/17 04:00:07;;;;;;;;;;;;;;;;;;4198188;28;19925;-67
2023/12/17 04:02:08;;;;;;;;;;;;;;;;;;4198656;28;20015;-67
2023/12/17 04:04:10;;;;;;;;;;;;;;;;;;4196875;28;20011;-67
2023/12/17 04:06:11;;;;;;;;;;;;;;;;;;4197063;28;19975;-67
2023/12/17 04:08:13;;;;;;;;;;;;;;;;;;4200707;28;19935;-67
2023/12/17 04:10:14;;;;;;;;;;;;;;;;;;4214871;28;19924;-67
2023/12/17 04:12:16;;;;;;;;;;;;;;;;;;4203293;28;19974;-67
2023/12/17 04:14:17;;;;;;;;;;;;;;;;;;4198231;28;20438;-67
2023/12/17 04:16:18;;;;;;;;;;;;;;;;;;4198116;28;20018;-67
2023/12/17 04:18:20;;;;;;;;;;;;;;;;;;4198047;28;20380;-67
2023/12/17 04:20:22;;;;;;;;;;;;;;;;;;4198148;28;19983;-67
2023/12/17 04:22:23;;;;;;;;;;;;;;;;;;4198097;28;20333;-67
2023/12/17 04:24:25;;;;;;;;;;;;;;;;;;4197940;28;19971;-67
2023/12/17 04:26:26;;;;;;;;;;;;;;;;;;4198098;28;19924;-67
2023/12/17 04:28:28;;;;;;;;;;;;;;;;;;4197926;28;19931;-67
2023/12/17 04:30:29;;;;;;;;;;;;;;;;;;4197866;28;19925;-67
2023/12/17 04:32:31;;;;;;;;;;;;;;;;;;4197866;28;19931;-67
2023/12/17 04:34:32;;;;;;;;;;;;;;;;;;4196944;28;19928;-67
2023/12/17 04:36:34;;;;;;;;;;;;;;;;;;4197997;28;20342;-67
2023/12/17 04:38:36;;;;;;;;;;;;;;;;;;4197760;28;19967;-67
2023/12/17 04:40:37;;;;;;;;;;;;;;;;;;4197843;28;19925;-67
2023/12/17 04:42:38;;;;;;;;;;;;;;;;;;4197834;28;19925;-67
2023/12/17 04:44:40;;;;;;;;;;;;;;;;;;4197763;28;20298;-67
2023/12/17 04:46:41;;;;;;;;;;;;;;;;;;4197889;28;19963;-67
2023/12/17 04:48:43;;;;;;;;;;;;;;;;;;4197642;28;19928;-67
2023/12/17 04:50:44;;;;;;;;;;;;;;;;;;4197654;28;20299;-67
2023/12/17 04:52:46;;;;;;;;;;;;;;;;;;4206944;28;19970;-67
2023/12/17 04:54:47;;;;;;;;;;;;;;;;;;4214453;28;19931;-67
2023/12/17 04:56:49;;;;;;;;;;;;;;;;;;4214282;28;19954;-67
2023/12/17 04:58:50;;;;;;;;;;;;;;;;;;4214398;28;20031;-67
2023/12/17 05:00:52;;;;;;;;;;;;;;;;;;4214272;28;19969;-67
2023/12/17 05:02:54;;;;;;;;;;;;;;;;;;4214254;28;19924;-67
2023/12/17 05:04:55;;;;;;;;;;;;;;;;;;4214299;28;19947;-68
2023/12/17 05:06:57;;;;;;;;;;;;;;;;;;4214317;28;19924;-67
2023/12/17 05:08:58;;;;;;;;;;;;;;;;;;4214047;28;19931;-67
2023/12/17 05:11:00;;;;;;;;;;;;;;;;;;4214247;28;19924;-67
2023/12/17 05:13:01;;;;;;;;;;;;;;;;;;4214308;28;20464;-67
2023/12/17 05:15:03;;;;;;;;;;;;;;;;;;4214186;28;19932;-67
2023/12/17 05:17:04;;;;;;;;;;;;;;;;;;4214166;28;20399;-67
2023/12/17 05:19:05;;;;;;;;;;;;;;;;;;4214059;28;19924;-67
2023/12/17 05:21:07;;;;;;;;;;;;;;;;;;4214051;28;19930;-67
2023/12/17 05:23:11;;;;;;;;;;;;;;;;;;4214270;28;19974;-67
2023/12/17 05:25:12;;;;;;;;;;;;;;;;;;4213206;28;19961;-67
2023/12/17 05:27:16;;;;;;;;;;;;;;;;;;4214018;28;19936;-67
2023/12/17 05:29:17;;;;;;;;;;;;;;;;;;4197557;28;19925;-67
2023/12/17 05:31:19;;;;;;;;;;;;;;;;;;4197439;28;19925;-67
2023/12/17 05:33:20;;;;;;;;;;;;;;;;;;4197333;28;19936;-67
2023/12/17 05:35:22;;;;;;;;;;;;;;;;;;4197563;28;19932;-66
2023/12/17 05:37:24;;;;;;;;;;;;;;;;;;4197469;28;20352;-66
2023/12/17 05:39:25;;;;;;;;;;;;;;;;;;4197326;28;19924;-65
2023/12/17 05:41:26;;;;;;;;;;;;;;;;;;4197298;28;19925;-66
2023/12/17 05:43:28;;;;;;;;;;;;;;;;;;4197398;28;19924;-66
2023/12/17 05:45:31;;;;;;;;;;;;;;;;;;4196138;28;19924;-66
2023/12/17 05:47:33;;;;;;;;;;;;;;;;;;4197327;28;19928;-66
2023/12/17 05:49:34;;;;;;;;;;;;;;;;;;4197375;28;19978;-65
2023/12/17 05:51:36;;;;;;;;;;;;;;;;;;4197170;28;19924;-66
2023/12/17 05:53:38;;;;;;;;;;;;;;;;;;4213516;28;20015;-66
2023/12/17 05:55:44;;;;;;;;;;;;;;;;;;4214199;28;20003;-65
2023/12/17 05:57:49;;;;;;;;;;;;;;;;;;4213808;28;19931;-66
2023/12/17 05:59:51;;;;;;;;;;;;;;;;;;4213864;28;19936;-66
2023/12/17 06:01:52;;;;;;;;;;;;;;;;;;4213731;28;19928;-66
2023/12/17 06:03:54;;;;;;;;;;;;;;;;;;4213494;28;19924;-66
2023/12/17 06:05:55;;;;;;;;;;;;;;;;;;4213761;28;20299;-66
2023/12/17 06:07:57;;;;;;;;;;;;;;;;;;4213446;28;20395;-66
2023/12/17 06:09:58;;;;;;;;;;;;;;;;;;4213683;28;19931;-66
2023/12/17 06:12:00;;;;;;;;;;;;;;;;;;4213730;28;19928;-66
2023/12/17 06:14:01;;;;;;;;;;;;;;;;;;4213760;28;19932;-65
2023/12/17 06:16:03;;;;;;;;;;;;;;;;;;4206966;28;19962;-65
2023/12/17 06:18:05;;;;;;;;;;;;;;;;;;4197120;28;19929;-66
2023/12/17 06:20:06;;;;;;;;;;;;;;;;;;4191020;28;19970;-66
2023/12/17 06:22:11;;;;;;;;;;;;;;;;;;4199765;28;20018;-66
2023/12/17 06:24:13;;;;;;;;;;;;;;;;;;4199749;28;19928;-66
2023/12/17 06:26:15;;;;;;;;;;;;;;;;;;4200139;28;19928;-66
2023/12/17 06:28:16;;;;;;;;;;;;;;;;;;4199056;28;19924;-66
2023/12/17 06:30:18;;;;;;;;;;;;;;;;;;4199254;28;20411;-66
2023/12/17 06:32:20;;;;;;;;;;;;;;;;;;4199221;28;20326;-66
2023/12/17 06:34:21;;;;;;;;;;;;;;;;;;4199764;28;19928;-66
2023/12/17 06:36:23;;;;;;;;;;;;;;;;;;4199520;28;19940;-66
2023/12/17 06:38:25;;;;;;;;;;;;;;;;;;4199700;28;19974;-66
2023/12/17 06:40:27;;;;;;;;;;;;;;;;;;4199544;28;19928;-66
2023/12/17 06:42:28;;;;;;;;;;;;;;;;;;4199495;28;20433;-65
2023/12/17 06:44:30;;;;;;;;;;;;;;;;;;4199744;28;19928;-66
2023/12/17 06:46:31;;;;;;;;;;;;;;;;;;4199809;28;20387;-67
2023/12/17 06:48:33;;;;;;;;;;;;;;;;;;4199480;28;19963;-67
2023/12/17 06:50:34;;;;;;;;;;;;;;;;;;4199562;28;19928;-67
2023/12/17 06:52:36;;;;;;;;;;;;;;;;;;4207291;28;20220;-67
2023/12/17 06:54:37;;;;;;;;;;;;;;;;;;4216279;28;20291;-67
2023/12/17 06:56:39;;;;;;;;;;;;;;;;;;4216146;28;20295;-67
2023/12/17 06:58:40;;;;;;;;;;;;;;;;;;4216106;28;19928;-67
2023/12/17 07:00:42;;;;;;;;;;;;;;;;;;4214822;28;19987;-68
2023/12/17 07:02:44;;;;;;;;;;;;;;;;;;4216149;28;19932;-67
2023/12/17 07:04:45;;;;;;;;;;;;;;;;;;4215867;28;19931;-67
2023/12/17 07:06:47;;;;;;;;;;;;;;;;;;4215952;28;19924;-67
2023/12/17 07:08:48;;;;;;;;;;;;;;;;;;4215627;28;20303;-67
2023/12/17 07:10:50;;;;;;;;;;;;;;;;;;4216188;28;19931;-67
2023/12/17 07:12:51;;;;;;;;;;;;;;;;;;4216011;28;19924;-67
2023/12/17 07:14:53;;;;;;;;;;;;;;;;;;4206812;28;19928;-67
2023/12/17 07:16:54;;;;;;;;;;;;;;;;;;4199087;28;19931;-67
2023/12/17 07:18:58;;;;;;;;;;;;;;;;;;4199213;28;19972;-67
2023/12/17 07:21:00;;;;;;;;;;;;;;;;;;4199005;28;19925;-67
2023/12/17 07:23:01;;;;;;;;;;;;;;;;;;4198983;28;20311;-67
2023/12/17 07:25:03;;;;;;;;;;;;;;;;;;4198930;28;19972;-67
2023/12/17 07:27:04;;;;;;;;;;;;;;;;;;4203167;28;19928;-67
2023/12/17 07:29:06;;;;;;;;;;;;;;;;;;4215571;28;19924;-67
2023/12/17 07:31:07;;;;;;;;;;;;;;;;;;4208539;28;19929;-67
2023/12/17 07:33:09;;;;;;;;;;;;;;;;;;4187985;28;19925;-67
2023/12/17 07:35:10;;;;;;;;;;;;;;;;;;4182151;28;19925;-67
2023/12/17 07:37:12;;;;;;;;;;;;;;;;;;4191661;28;19932;-67
2023/12/17 07:39:13;;;;;;;;;;;;;;;;;;4198558;28;19990;-67
2023/12/17 07:41:15;;;;;;;;;;;;;;;;;;4198324;28;20394;-67
2023/12/17 07:43:16;;;;;;;;;;;;;;;;;;4197942;28;19928;-67
2023/12/17 07:45:18;;;;;;;;;;;;;;;;;;4194046;28;19931;-67
2023/12/17 07:47:20;;;;;;;;;;;;;;;;;;4190038;28;19947;-67
2023/12/17 07:49:22;;;;;;;;;;;;;;;;;;4192676;28;19964;-67
2023/12/17 07:51:23;;;;;;;;;;;;;;;;;;4198397;28;19954;-67
2023/12/17 07:53:25;;;;;;;;;;;;;;;;;;4212936;28;19946;-67
2023/12/17 07:55:26;;;;;;;;;;;;;;;;;;4215304;28;20018;-68
2023/12/17 07:57:28;;;;;;;;;;;;;;;;;;4194527;28;19925;-66
2023/12/17 07:59:30;;;;;;;;;;;;;;;;;;4190663;28;19925;-66
2023/12/17 08:01:31;;;;;;;;;;;;;;;;;;4191752;28;20018;-66
2023/12/17 08:03:32;;;;;;;;;;;;;;;;;;4195358;28;19924;-66
2023/12/17 08:05:34;;;;;;;;;;;;;;;;;;4191353;28;19936;-66
2023/12/17 08:07:37;;;;;;;;;;;;;;;;;;4195902;28;19931;-66
2023/12/17 08:09:39;;;;;;;;;;;;;;;;;;4199294;28;20288;-66
2023/12/17 08:11:40;;;;;;;;;;;;;;;;;;4197069;28;19924;-66
2023/12/17 08:13:42;;;;;;;;;;;;;;;;;;4184696;28;20019;-66
2023/12/17 08:15:43;;;;;;;;;;;;;;;;;;4209266;28;19924;-66
2023/12/17 08:17:45;;;;;;;;;;;;;;;;;;4195407;28;20023;-66
2023/12/17 08:19:46;;;;;;;;;;;;;;;;;;4192762;28;19925;-65
2023/12/17 08:21:48;;;;;;;;;;;;;;;;;;4195945;28;19951;-66
2023/12/17 08:23:49;;;;;;;;;;;;;;;;;;4197828;28;19985;-65
2023/12/17 08:25:51;;;;;;;;;;;;;;;;;;4193373;28;19936;-66
2023/12/17 08:27:53;;;;;;;;;;;;;;;;;;4194855;28;19928;-65
2023/12/17 08:29:54;;;;;;;;;;;;;;;;;;4189503;28;19929;-66
2023/12/17 08:31:56;;;;;;;;;;;;;;;;;;4190800;28;19928;-66
2023/12/17 08:33:57;;;;;;;;;;;;;;;;;;4190796;28;19924;-65
2023/12/17 08:35:59;;;;;;;;;;;;;;;;;;4181444;28;19932;-66
2023/12/17 08:38:05;;;;;;;;;;;;;;;;;;4193634;28;19924;-66
2023/12/17 08:40:07;;;;;;;;;;;;;;;;;;4192484;28;20261;-66
2023/12/17 08:42:08;;;;;;;;;;;;;;;;;;4190637;28;19924;-65
2023/12/17 08:44:10;;;;;;;;;;;;;;;;;;4190186;28;19924;-66
2023/12/17 08:46:11;;;;;;;;;;;;;;;;;;4180774;28;19925;-66
2023/12/17 08:48:13;;;;;;;;;;;;;;;;;;4195845;28;19982;-66
2023/12/17 08:50:14;;;;;;;;;;;;;;;;;;4193874;28;19935;-65
2023/12/17 08:52:16;;;;;;;;;;;;;;;;;;4190004;28;19933;-66
2023/12/17 08:54:18;;;;;;;;;;;;;;;;;;4197111;28;19978;-65
2023/12/17 08:56:20;;;;;;;;;;;;;;;;;;4196480;28;19924;-66
2023/12/17 08:58:23;;;;;;;;;;;;;;;;;;4208514;28;20026;-66
2023/12/17 09:00:25;;;;;;;;;;;;;;;;;;4190975;28;19929;-66
2023/12/17 09:02:27;;;;;;;;;;;;;;;;;;4181245;28;19929;-66
2023/12/17 09:04:28;;;;;;;;;;;;;;;;;;4180581;28;20511;-66
2023/12/17 09:06:29;;;;;;;;;;;;;;;;;;4180830;28;20380;-66
2023/12/17 09:08:31;;;;;;;;;;;;;;;;;;4190924;28;19924;-66
2023/12/17 09:10:33;;;;;;;;;;;;;;;;;;4214299;28;19924;-66
2023/12/17 09:12:35;;;;;;;;;;;;;;;;;;4211572;28;20023;-66
2023/12/17 09:14:36;;;;;;;;;;;;;;;;;;4197360;28;19978;-66
2023/12/17 09:16:37;;;;;;;;;;;;;;;;;;4195981;28;19929;-67
2023/12/17 09:18:41;;;;;;;;;;;;;;;;;;4197026;28;20332;-68
2023/12/17 09:20:43;;;;;;;;;;;;;;;;;;4197366;28;19924;-68
2023/12/17 09:22:44;;;;;;;;;;;;;;;;;;4196723;28;20296;-68
2023/12/17 09:24:46;;;;;;;;;;;;;;;;;;4190624;28;20247;-67
2023/12/17 09:26:49;;;;;;;;;;;;;;;;;;4189371;28;20295;-67
2023/12/17 09:28:51;;;;;;;;;;;;;;;;;;4196695;28;20323;-67
2023/12/17 09:30:52;;;;;;;;;;;;;;;;;;4197362;28;19947;-68
2023/12/17 09:32:54;;;;;;;;;;;;;;;;;;4196538;28;19928;-68
2023/12/17 09:34:56;;;;;;;;;;;;;;;;;;4196540;28;19924;-68
2023/12/17 09:36:57;;;;;;;;;;;;;;;;;;4196882;28;19947;-67
2023/12/17 09:38:58;;;;;;;;;;;;;;;;;;4196015;28;20140;-67
2023/12/17 09:41:00;;;;;;;;;;;;;;;;;;4196832;28;19925;-67
2023/12/17 09:43:01;;;;;;;;;;;;;;;;;;4196866;28;19924;-68
2023/12/17 09:45:03;;;;;;;;;;;;;;;;;;4197148;28;19928;-68
2023/12/17 09:47:04;;;;;;;;;;;;;;;;;;4197328;28;19936;-67
2023/12/17 09:49:06;;;;;;;;;;;;;;;;;;4196783;28;19925;-67
2023/12/17 09:51:10;;;;;;;;;;;;;;;;;;4196537;28;19924;-68
2023/12/17 09:53:11;;;;;;;;;;;;;;;;;;4196946;28;20296;-68
2023/12/17 09:55:12;;;;;;;;;;;;;;;;;;4198088;28;19959;-67
2023/12/17 09:57:14;;;;;;;;;;;;;;;;;;4200444;28;20364;-67
2023/12/17 09:59:15;;;;;;;;;;;;;;;;;;4200316;28;19967;-68
2023/12/17 10:01:17;;;;;;;;;;;;;;;;;;4199966;28;20427;-67
2023/12/17 10:03:18;;;;;;;;;;;;;;;;;;4199906;28;20287;-68
2023/12/17 10:05:20;;;;;;;;;;;;;;;;;;4199981;28;19924;-68
2023/12/17 10:07:22;;;;;;;;;;;;;;;;;;4199943;28;20023;-66
2023/12/17 10:09:23;;;;;;;;;;;;;;;;;;4205038;28;19970;-66
2023/12/17 10:11:26;;;;;;;;;;;;;;;;;;4199753;28;19929;-66
2023/12/17 10:13:27;;;;;;;;;;;;;;;;;;4198705;28;19932;-67
2023/12/17 10:15:29;;;;;;;;;;;;;;;;;;4199937;28;20438;-67
2023/12/17 10:17:30;;;;;;;;;;;;;;;;;;4200133;28;19967;-66
2023/12/17 10:19:32;;;;;;;;;;;;;;;;;;4199738;28;19924;-66
2023/12/17 10:21:34;;;;;;;;;;;;;;;;;;4199737;28;20342;-66
2023/12/17 10:23:35;;;;;;;;;;;;;;;;;;4199886;28;19938;-66
2023/12/17 10:25:36;;;;;;;;;;;;;;;;;;4200041;28;20015;-67
2023/12/17 10:27:38;;;;;;;;;;;;;;;;;;4200066;28;19924;-66
2023/12/17 10:29:40;;;;;;;;;;;;;;;;;;4199718;28;19931;-66
2023/12/17 10:31:41;;;;;;;;;;;;;;;;;;4199856;28;19929;-67
2023/12/17 10:33:43;;;;;;;;;;;;;;;;;;4200087;28;19924;-66
2023/12/17 10:35:44;;;;;;;;;;;;;;;;;;4199365;28;19925;-67
2023/12/17 10:37:46;;;;;;;;;;;;;;;;;;4199257;28;19931;-67
2023/12/17 10:39:48;;;;;;;;;;;;;;;;;;4198952;28;19925;-66
2023/12/17 10:41:50;;;;;;;;;;;;;;;;;;4200787;28;19980;-67
2023/12/17 10:43:51;;;;;;;;;;;;;;;;;;4190854;28;19929;-66
2023/12/17 10:45:52;;;;;;;;;;;;;;;;;;4191656;28;19935;-67
2023/12/17 10:47:56;;;;;;;;;;;;;;;;;;4183934;28;19964;-67
2023/12/17 10:49:57;;;;;;;;;;;;;;;;;;4188203;28;19924;-67
2023/12/17 10:52:00;;;;;;;;;;;;;;;;;;4202331;28;19928;-67
2023/12/17 10:54:01;;;;;;;;;;;;;;;;;;4216156;28;19959;-67
2023/12/17 10:56:03;;;;;;;;;;;;;;;;;;4212570;28;19939;-67
2023/12/17 10:58:05;;;;;;;;;;;;;;;;;;4199632;28;19928;-67
2023/12/17 11:00:07;;;;;;;;;;;;;;;;;;4199049;28;20027;-67
2023/12/17 11:02:08;;;;;;;;;;;;;;;;;;4198901;28;19978;-67
2023/12/17 11:04:10;;;;;;;;;;;;;;;;;;4189658;28;19930;-67
2023/12/17 11:06:11;;;;;;;;;;;;;;;;;;4190790;28;19979;-67
2023/12/17 11:08:13;;;;;;;;;;;;;;;;;;4196268;28;19932;-67
2023/12/17 11:10:17;;;;;;;;;;;;;;;;;;4196112;28;19931;-67
2023/12/17 11:12:19;;;;;;;;;;;;;;;;;;4191125;28;20346;-67
2023/12/17 11:14:20;;;;;;;;;;;;;;;;;;4188271;28;20380;-67
2023/12/17 11:16:24;;;;;;;;;;;;;;;;;;4198699;28;19925;-67
2023/12/17 11:18:25;;;;;;;;;;;;;;;;;;4198811;28;19955;-67
2023/12/17 11:20:27;;;;;;;;;;;;;;;;;;4197679;28;19928;-67
2023/12/17 11:22:28;;;;;;;;;;;;;;;;;;4198835;28;19948;-67
2023/12/17 11:24:30;;;;;;;;;;;;;;;;;;4198920;28;19934;-67
2023/12/17 11:26:31;;;;;;;;;;;;;;;;;;4198757;28;19932;-66
2023/12/17 11:28:33;;;;;;;;;;;;;;;;;;4198343;28;20379;-66
2023/12/17 11:30:36;;;;;;;;;;;;;;;;;;4198856;28;19970;-66
2023/12/17 11:32:38;;;;;;;;;;;;;;;;;;4198635;28;19924;-67
2023/12/17 11:34:39;;;;;;;;;;;;;;;;;;4198652;28;19962;-67
2023/12/17 11:36:41;;;;;;;;;;;;;;;;;;4199131;28;19924;-67
2023/12/17 11:38:43;;;;;;;;;;;;;;;;;;4194010;28;19924;-64
2023/12/17 11:40:45;;;;;;;;;;;;;;;;;;4180700;28;19924;-64
2023/12/17 11:42:46;;;;;;;;;;;;;;;;;;4184639;28;19924;-64
2023/12/17 11:44:48;;;;;;;;;;;;;;;;;;4197486;28;19924;-64
2023/12/17 11:46:49;;;;;;;;;;;;;;;;;;4197930;28;19931;-64
2023/12/17 11:48:51;;;;;;;;;;;;;;;;;;4196389;28;19925;-64
2023/12/17 11:50:54;;;;;;;;;;;;;;;;;;4195354;28;19972;-64
2023/12/17 11:52:55;;;;;;;;;;;;;;;;;;4188286;28;20009;-65
2023/12/17 11:54:57;;;;;;;;;;;;;;;;;;4196041;28;19931;-64
2023/12/17 11:56:58;;;;;;;;;;;;;;;;;;4193763;28;19970;-64
2023/12/17 11:59:00;;;;;;;;;;;;;;;;;;4193942;28;19924;-65
2023/12/17 12:01:01;;;;;;;;;;;;;;;;;;4193248;28;19968;-63
2023/12/17 12:03:03;;;;;;;;;;;;;;;;;;4195329;28;19928;-64
2023/12/17 12:05:04;;;;;;;;;;;;;;;;;;4189394;28;19924;-63
2023/12/17 12:07:06;;;;;;;;;;;;;;;;;;4194453;28;20411;-64
2023/12/17 12:09:08;;;;;;;;;;;;;;;;;;4194154;28;19928;-64
2023/12/17 12:11:09;;;;;;;;;;;;;;;;;;4195583;28;20612;-63
2023/12/17 12:13:14;;;;;;;;;;;;;;;;;;4196962;28;19960;-64
2023/12/17 12:15:16;;;;;;;;;;;;;;;;;;4198316;28;19974;-63
2023/12/17 12:17:18;;;;;;;;;;;;;;;;;;4197093;28;19971;-64
2023/12/17 12:19:19;;;;;;;;;;;;;;;;;;4195730;28;19924;-64
2023/12/17 12:21:27;;;;;;;;;;;;;;;;;;4197451;28;20355;-63
2023/12/17 12:23:28;;;;;;;;;;;;;;;;;;4196593;28;20284;-63
2023/12/17 12:25:30;;;;;;;;;;;;;;;;;;4197899;28;19978;-64
2023/12/17 12:27:31;;;;;;;;;;;;;;;;;;4197983;28;20352;-64
2023/12/17 12:29:33;;;;;;;;;;;;;;;;;;4195385;28;19924;-65
2023/12/17 12:31:34;;;;;;;;;;;;;;;;;;4197892;28;20376;-64
2023/12/17 12:33:36;;;;;;;;;;;;;;;;;;4193918;28;20016;-64
2023/12/17 12:35:38;;;;;;;;;;;;;;;;;;4197066;28;19924;-64
2023/12/17 12:37:39;;;;;;;;;;;;;;;;;;4197877;28;20441;-64
2023/12/17 12:39:41;;;;;;;;;;;;;;;;;;4197655;28;20296;-65
2023/12/17 12:41:50;;;;;;;;;;;;;;;;;;4195767;28;19970;-64
2023/12/17 12:43:53;;;;;;;;;;;;;;;;;;4192712;28;20364;-64
2023/12/17 12:45:54;;;;;;;;;;;;;;;;;;4181317;28;20392;-64
2023/12/17 12:47:56;;;;;;;;;;;;;;;;;;4193414;28;19935;-67
2023/12/17 12:49:58;;;;;;;;;;;;;;;;;;4193837;28;19929;-67
2023/12/17 12:52:00;;;;;;;;;;;;;;;;;;4198379;28;19924;-67
2023/12/17 12:54:06;;;;;;;;;;;;;;;;;;4200586;28;19925;-66
2023/12/17 12:56:07;;;;;;;;;;;;;;;;;;4197460;28;19990;-66
2023/12/17 12:58:09;;;;;;;;;;;;;;;;;;4195114;28;19924;-66
2023/12/17 13:00:10;;;;;;;;;;;;;;;;;;4191935;28;19925;-66
2023/12/17 13:02:12;;;;;;;;;;;;;;;;;;4191900;28;19978;-66
2023/12/17 13:04:13;;;;;;;;;;;;;;;;;;4180693;28;19925;-66
2023/12/17 13:06:15;;;;;;;;;;;;;;;;;;4188988;28;20293;-66
2023/12/17 13:08:20;;;;;;;;;;;;;;;;;;4192973;28;20303;-66
2023/12/17 13:10:22;;;;;;;;;;;;;;;;;;4188832;28;19925;-66
2023/12/17 13:12:24;;;;;;;;;;;;;;;;;;4191126;28;19977;-66
2023/12/17 13:14:25;;;;;;;;;;;;;;;;;;4197625;28;19924;-66
2023/12/17 13:16:27;;;;;;;;;;;;;;;;;;4195383;28;20040;-66
2023/12/17 13:18:28;;;;;;;;;;;;;;;;;;4197209;28;20383;-66
2023/12/17 13:20:30;;;;;;;;;;;;;;;;;;4197150;28;19924;-66
2023/12/17 13:22:31;;;;;;;;;;;;;;;;;;4196461;28;19983;-66
2023/12/17 13:24:33;;;;;;;;;;;;;;;;;;4195950;28;19947;-66
2023/12/17 13:26:34;;;;;;;;;;;;;;;;;;4197295;28;19925;-66
2023/12/17 13:28:36;;;;;;;;;;;;;;;;;;4197378;28;20399;-67
2023/12/17 13:30:37;;;;;;;;;;;;;;;;;;4198625;28;19928;-66
2023/12/17 13:32:39;;;;;;;;;;;;;;;;;;4200464;28;20407;-66
2023/12/17 13:34:42;;;;;;;;;;;;;;;;;;4200740;28;20380;-66
2023/12/17 13:36:44;;;;;;;;;;;;;;;;;;4200397;28;19924;-66
2023/12/17 13:38:45;;;;;;;;;;;;;;;;;;4195118;28;19925;-66
2023/12/17 13:40:49;;;;;;;;;;;;;;;;;;4199225;28;19929;-66
2023/12/17 13:42:50;;;;;;;;;;;;;;;;;;4189062;28;19947;-66
2023/12/17 13:44:52;;;;;;;;;;;;;;;;;;4200535;28;19924;-66
2023/12/17 13:46:53;;;;;;;;;;;;;;;;;;4199675;28;19959;-66
2023/12/17 13:48:54;;;;;;;;;;;;;;;;;;4193530;28;19956;-66
2023/12/17 13:50:56;;;;;;;;;;;;;;;;;;4190671;28;19933;-66